Time;durP1;ratioP1;P1;durP2;ratioP2;P2;SDS_P1;SDS_P2;PMS_P1;PMS_P2;Temp;Humidity;BMP_temperature;BMP_pressure;BME280_temperature;BME280_humidity;BME280_pressure;Samples;Min_cycle;Max_cycle;Signal;HPM_P1;HPM_P2
2022/10/02 00:01:32;;;;;;;0.30;0.30;;;;;;;;;;7382858;19;20617;-73
2022/10/02 00:03:59;;;;;;;0.20;0.20;;;;;;;;;;7386773;19;20117;-73
2022/10/02 00:06:36;;;;;;;0.30;0.30;;;;;;;;;;7389697;19;20453;-73
2022/10/02 00:09:02;;;;;;;0.52;0.50;;;;;;;;;;7391048;19;20115;-73
2022/10/02 00:11:38;;;;;;;0.30;0.30;;;;;;;;;;7391115;19;20635;-73
2022/10/02 00:14:04;;;;;;;0.30;0.30;;;;;;;;;;7387103;19;20132;-73
2022/10/02 00:16:37;;;;;;;0.30;0.30;;;;;;;;;;7389895;19;20097;-73
2022/10/02 00:19:03;;;;;;;3.50;2.15;;;;;;;;;;7388985;19;20595;-73
2022/10/02 00:21:43;;;;;;;0.90;0.85;;;;;;;;;;7389363;19;20173;-73
2022/10/02 00:24:14;;;;;;;0.30;0.30;;;;;;;;;;7390446;19;20192;-73
2022/10/02 00:26:41;;;;;;;0.30;0.30;;;;;;;;;;7386129;19;20162;-73
2022/10/02 00:29:19;;;;;;;0.30;0.30;;;;;;;;;;7381590;19;20622;-73
2022/10/02 00:31:53;;;;;;;0.30;0.30;;;;;;;;;;7387686;19;20128;-73
2022/10/02 00:34:31;;;;;;;0.30;0.30;;;;;;;;;;7387502;19;20213;-73
2022/10/02 00:37:28;;;;;;;0.20;0.20;;;;;;;;;;7388556;19;20180;-73
2022/10/02 00:40:57;;;;;;;0.30;0.30;;;;;;;;;;7378738;19;20140;-72
2022/10/02 00:43:46;;;;;;;0.30;0.30;;;;;;;;;;7376620;19;20133;-73
2022/10/02 00:46:51;;;;;;;0.30;0.30;;;;;;;;;;7374856;19;20160;-73
2022/10/02 00:49:46;;;;;;;0.30;0.30;;;;;;;;;;7384899;19;20145;-73
2022/10/02 00:52:14;;;;;;;0.30;0.30;;;;;;;;;;7382943;19;20571;-72
2022/10/02 00:55:17;;;;;;;0.32;0.32;;;;;;;;;;7385272;19;20149;-73
2022/10/02 00:57:52;;;;;;;0.30;0.30;;;;;;;;;;7378562;19;20184;-73
2022/10/02 01:00:18;;;;;;;0.30;0.30;;;;;;;;;;7379970;19;20141;-73
2022/10/02 01:03:25;;;;;;;0.30;0.30;;;;;;;;;;7379781;19;20109;-73
2022/10/02 01:05:51;;;;;;;0.30;0.30;;;;;;;;;;7376294;19;20125;-73
2022/10/02 01:08:16;;;;;;;0.30;0.30;;;;;;;;;;7381738;19;20438;-73
2022/10/02 01:10:42;;;;;;;0.30;0.30;;;;;;;;;;7370374;19;20101;-72
2022/10/02 01:13:08;;;;;;;0.30;0.30;;;;;;;;;;7382505;19;20637;-73
2022/10/02 01:15:39;;;;;;;0.30;0.30;;;;;;;;;;7383072;19;20121;-73
2022/10/02 01:18:05;;;;;;;0.30;0.30;;;;;;;;;;7377450;19;20113;-72
2022/10/02 01:20:35;;;;;;;0.30;0.30;;;;;;;;;;7384476;19;20113;-73
2022/10/02 01:23:14;;;;;;;0.30;0.30;;;;;;;;;;7379324;19;20475;-73
2022/10/02 01:25:39;;;;;;;0.30;0.30;;;;;;;;;;7382019;19;20128;-73
2022/10/02 01:28:05;;;;;;;0.30;0.30;;;;;;;;;;7381007;19;20101;-73
2022/10/02 01:30:31;;;;;;;0.20;0.20;;;;;;;;;;7376562;19;20587;-72
2022/10/02 01:32:58;;;;;;;0.30;0.30;;;;;;;;;;7381941;19;20117;-73
2022/10/02 01:35:26;;;;;;;0.30;0.30;;;;;;;;;;7385105;19;20659;-72
2022/10/02 01:37:53;;;;;;;0.30;0.30;;;;;;;;;;7382902;19;20101;-73
2022/10/02 01:40:38;;;;;;;0.30;0.30;;;;;;;;;;7381496;19;20489;-73
2022/10/02 01:43:19;;;;;;;0.30;0.30;;;;;;;;;;7382011;19;20113;-73
2022/10/02 01:45:54;;;;;;;0.30;0.30;;;;;;;;;;7387751;19;20121;-73
2022/10/02 01:48:34;;;;;;;0.30;0.30;;;;;;;;;;7388990;19;20602;-74
2022/10/02 01:51:32;;;;;;;0.22;0.22;;;;;;;;;;7382371;19;20097;-72
2022/10/02 01:54:19;;;;;;;0.30;0.30;;;;;;;;;;7379920;19;20276;-74
2022/10/02 01:56:53;;;;;;;0.30;0.30;;;;;;;;;;7378202;19;20125;-73
2022/10/02 01:59:21;;;;;;;0.30;0.30;;;;;;;;;;7380592;19;20137;-73
2022/10/02 02:02:00;;;;;;;0.20;0.20;;;;;;;;;;7376177;19;20144;-74
2022/10/02 02:04:36;;;;;;;0.30;0.30;;;;;;;;;;7380619;19;20516;-73
2022/10/02 02:07:39;;;;;;;0.30;0.30;;;;;;;;;;7384465;19;20113;-73
2022/10/02 02:10:45;;;;;;;0.30;0.30;;;;;;;;;;7382347;19;20570;-73
2022/10/02 02:13:15;;;;;;;0.30;0.30;;;;;;;;;;7371769;19;20127;-74
2022/10/02 02:16:12;;;;;;;0.30;0.30;;;;;;;;;;7373033;19;20180;-73
2022/10/02 02:18:42;;;;;;;0.68;0.68;;;;;;;;;;7372932;19;20583;-73
2022/10/02 02:21:25;;;;;;;0.30;0.30;;;;;;;;;;7367106;19;20117;-73
2022/10/02 02:23:52;;;;;;;0.20;0.20;;;;;;;;;;7366647;19;20121;-72
2022/10/02 02:26:18;;;;;;;0.30;0.30;;;;;;;;;;7367235;19;20105;-73
2022/10/02 02:28:48;;;;;;;0.30;0.30;;;;;;;;;;7370309;19;20161;-72
2022/10/02 02:31:16;;;;;;;0.30;0.30;;;;;;;;;;7366576;19;20121;-73
2022/10/02 02:33:45;;;;;;;0.30;0.30;;;;;;;;;;7378892;19;20173;-72
2022/10/02 02:36:13;;;;;;;0.20;0.20;;;;;;;;;;7379915;19;20113;-72
2022/10/02 02:38:45;;;;;;;0.30;0.30;;;;;;;;;;7379767;19;20109;-72
2022/10/02 02:41:19;;;;;;;0.30;0.30;;;;;;;;;;7377102;19;20102;-73
2022/10/02 02:43:49;;;;;;;0.30;0.30;;;;;;;;;;7377809;19;20606;-72
2022/10/02 02:47:02;;;;;;;0.30;0.30;;;;;;;;;;7385308;19;20113;-73
2022/10/02 02:49:28;;;;;;;0.30;0.30;;;;;;;;;;7380705;19;20122;-73
2022/10/02 02:51:56;;;;;;;0.30;0.30;;;;;;;;;;7382347;19;20564;-73
2022/10/02 02:54:36;;;;;;;0.20;0.20;;;;;;;;;;7381930;19;20156;-73
2022/10/02 02:57:04;;;;;;;0.30;0.30;;;;;;;;;;7377732;19;20101;-73
2022/10/02 02:59:30;;;;;;;0.30;0.30;;;;;;;;;;7372598;19;20129;-73
2022/10/02 03:01:56;;;;;;;0.30;0.30;;;;;;;;;;7375865;19;20108;-73
2022/10/02 03:04:21;;;;;;;0.30;0.30;;;;;;;;;;7378857;19;20156;-73
2022/10/02 03:06:48;;;;;;;0.30;0.30;;;;;;;;;;7373571;19;20136;-73
2022/10/02 03:09:16;;;;;;;0.30;0.30;;;;;;;;;;7377853;19;20113;-73
2022/10/02 03:12:29;;;;;;;0.30;0.30;;;;;;;;;;7380975;19;20493;-74
2022/10/02 03:15:36;;;;;;;0.30;0.30;;;;;;;;;;7376854;19;20493;-73
2022/10/02 03:18:27;;;;;;;0.30;0.30;;;;;;;;;;7380151;19;20124;-73
2022/10/02 03:21:09;;;;;;;0.30;0.30;;;;;;;;;;7379031;19;20189;-74
2022/10/02 03:23:50;;;;;;;0.30;0.30;;;;;;;;;;7381704;19;20109;-73
2022/10/02 03:26:19;;;;;;;0.32;0.32;;;;;;;;;;7381381;19;20640;-73
2022/10/02 03:28:48;;;;;;;0.30;0.30;;;;;;;;;;7380530;19;20117;-74
2022/10/02 03:31:14;;;;;;;0.30;0.30;;;;;;;;;;7380630;19;20110;-73
2022/10/02 03:33:40;;;;;;;0.30;0.30;;;;;;;;;;7384776;19;20125;-73
2022/10/02 03:36:06;;;;;;;0.30;0.30;;;;;;;;;;7379484;19;20125;-73
2022/10/02 03:38:32;;;;;;;0.30;0.30;;;;;;;;;;7380146;19;20144;-73
2022/10/02 03:40:57;;;;;;;0.30;0.30;;;;;;;;;;7378873;19;20132;-73
2022/10/02 03:43:25;;;;;;;0.30;0.30;;;;;;;;;;7379155;19;20121;-74
2022/10/02 03:45:50;;;;;;;0.30;0.30;;;;;;;;;;7378967;19;20162;-74
2022/10/02 03:48:16;;;;;;;0.30;0.30;;;;;;;;;;7383876;19;20125;-74
2022/10/02 03:50:41;;;;;;;0.40;0.40;;;;;;;;;;7380499;19;20125;-73
2022/10/02 03:53:21;;;;;;;0.30;0.30;;;;;;;;;;7379584;19;20112;-74
2022/10/02 03:55:52;;;;;;;0.30;0.30;;;;;;;;;;7383636;19;20180;-73
2022/10/02 15:58:07;;;;;;;0.30;0.30;;;;;;;;;;7386081;19;20662;-73
2022/10/02 16:01:00;;;;;;;0.30;0.30;;;;;;;;;;7386281;19;20132;-73
2022/10/02 16:04:06;;;;;;;0.30;0.30;;;;;;;;;;7385036;19;20136;-73
2022/10/02 16:06:52;;;;;;;0.20;0.20;;;;;;;;;;7372538;19;20116;-73
2022/10/02 16:09:39;;;;;;;0.30;0.30;;;;;;;;;;7370492;19;20853;-73
2022/10/02 16:12:24;;;;;;;0.20;0.20;;;;;;;;;;7369305;19;20144;-73
2022/10/02 16:15:22;;;;;;;0.50;0.50;;;;;;;;;;7374915;19;20554;-72
2022/10/02 16:18:12;;;;;;;0.30;0.30;;;;;;;;;;7372326;19;20117;-74
2022/10/02 16:20:59;;;;;;;0.30;0.30;;;;;;;;;;7375041;19;20329;-74
2022/10/02 16:23:49;;;;;;;0.30;0.30;;;;;;;;;;7395612;19;20117;-74
2022/10/02 16:26:28;;;;;;;0.30;0.30;;;;;;;;;;7384696;19;20156;-74
2022/10/02 16:29:15;;;;;;;0.20;0.20;;;;;;;;;;7369905;19;20113;-74
2022/10/02 16:31:49;;;;;;;0.30;0.30;;;;;;;;;;7387119;19;20145;-74
2022/10/02 16:34:38;;;;;;;0.30;0.30;;;;;;;;;;7389270;19;20153;-74
2022/10/02 16:37:25;;;;;;;0.30;0.30;;;;;;;;;;7388165;19;20121;-74
2022/10/02 16:40:35;;;;;;;0.32;0.32;;;;;;;;;;7382427;19;20941;-71
2022/10/02 16:43:25;;;;;;;0.30;0.30;;;;;;;;;;7389416;19;20111;-74
2022/10/02 16:46:02;;;;;;;0.30;0.30;;;;;;;;;;7383990;19;20587;-73
2022/10/02 16:48:49;;;;;;;0.30;0.30;;;;;;;;;;7375999;19;20117;-74
2022/10/02 16:51:27;;;;;;;0.30;0.30;;;;;;;;;;7385829;19;20106;-73
2022/10/02 16:54:16;;;;;;;1.10;0.93;;;;;;;;;;7385584;19;20132;-72
2022/10/02 16:56:41;;;;;;;0.30;0.30;;;;;;;;;;7387135;19;20117;-72
2022/10/02 16:59:19;;;;;;;0.30;0.30;;;;;;;;;;7391674;19;20132;-72
2022/10/02 17:01:48;;;;;;;0.38;0.38;;;;;;;;;;7387410;19;20454;-73
2022/10/02 17:04:17;;;;;;;0.30;0.30;;;;;;;;;;7389765;19;20183;-73
2022/10/02 17:06:51;;;;;;;0.50;0.50;;;;;;;;;;7388190;19;20188;-73
2022/10/02 17:09:39;;;;;;;0.30;0.30;;;;;;;;;;7390171;19;20117;-73
2022/10/02 17:12:19;;;;;;;0.30;0.30;;;;;;;;;;7387500;19;20121;-73
2022/10/02 17:14:51;;;;;;;0.30;0.30;;;;;;;;;;7388971;19;20136;-73
2022/10/02 17:17:25;;;;;;;0.20;0.20;;;;;;;;;;7385527;19;20558;-73
2022/10/02 17:20:14;;;;;;;2.38;1.30;;;;;;;;;;7385465;19;20108;-73
2022/10/02 17:22:43;;;;;;;0.20;0.20;;;;;;;;;;7386892;19;20591;-73
2022/10/02 17:25:16;;;;;;;0.30;0.30;;;;;;;;;;7386787;19;20121;-73
2022/10/02 17:27:53;;;;;;;0.30;0.30;;;;;;;;;;7386501;19;20567;-73
2022/10/02 17:30:26;;;;;;;0.20;0.20;;;;;;;;;;7386394;19;20451;-73
2022/10/02 17:32:59;;;;;;;0.30;0.30;;;;;;;;;;7387596;19;20670;-73
2022/10/02 17:35:39;;;;;;;0.30;0.30;;;;;;;;;;7386229;19;20874;-73
2022/10/02 17:38:24;;;;;;;0.30;0.30;;;;;;;;;;7385585;19;20117;-73
2022/10/02 17:41:21;;;;;;;0.30;0.30;;;;;;;;;;7385396;19;20556;-73
2022/10/02 17:43:59;;;;;;;0.30;0.30;;;;;;;;;;7389762;19;20181;-73
2022/10/02 17:46:37;;;;;;;0.30;0.30;;;;;;;;;;7388192;19;20181;-73
2022/10/02 17:49:14;;;;;;;0.30;0.30;;;;;;;;;;7387634;19;20117;-73
2022/10/02 17:56:26;;;;;;;0.30;0.30;;;;;;;;;;7386454;19;20120;-73
2022/10/02 17:57:45;;;;;;;0.30;0.30;;;;;;;;;;7388762;19;20720;-73
2022/10/02 18:00:15;;;;;;;0.30;0.30;;;;;;;;;;7387392;19;20118;-73
2022/10/02 18:03:09;;;;;;;0.30;0.30;;;;;;;;;;7381160;19;20641;-73
2022/10/02 18:06:17;;;;;;;0.30;0.30;;;;;;;;;;7378809;19;20189;-73
2022/10/02 18:08:55;;;;;;;0.30;0.30;;;;;;;;;;7383902;19;20108;-73
2022/10/02 18:11:46;;;;;;;0.30;0.30;;;;;;;;;;7386729;19;20116;-72
2022/10/02 18:14:30;;;;;;;0.50;0.50;;;;;;;;;;7382286;19;20117;-72
2022/10/02 18:17:20;;;;;;;0.30;0.30;;;;;;;;;;7374552;19;20144;-72
2022/10/02 18:20:33;;;;;;;0.30;0.30;;;;;;;;;;7385627;19;20199;-72
2022/10/02 18:26:14;;;;;;;0.30;0.30;;;;;;;;;;7376491;19;20219;-73
2022/10/02 18:29:06;;;;;;;0.30;0.30;;;;;;;;;;7385870;19;20121;-73
2022/10/02 18:31:54;;;;;;;0.30;0.30;;;;;;;;;;7384711;19;20529;-73
2022/10/02 18:34:47;;;;;;;0.30;0.30;;;;;;;;;;7388721;19;20153;-73
2022/10/02 18:37:33;;;;;;;0.30;0.30;;;;;;;;;;7388452;19;20113;-75
2022/10/02 18:40:15;;;;;;;0.30;0.30;;;;;;;;;;7387052;19;20138;-72
2022/10/02 18:43:01;;;;;;;0.30;0.30;;;;;;;;;;7379765;19;20117;-73
2022/10/02 18:45:30;;;;;;;0.30;0.30;;;;;;;;;;7384251;19;20177;-73
2022/10/02 18:48:12;;;;;;;0.30;0.30;;;;;;;;;;7388563;19;20149;-74
2022/10/02 18:50:52;;;;;;;0.30;0.30;;;;;;;;;;7381273;19;20177;-73
2022/10/02 18:53:39;;;;;;;0.30;0.30;;;;;;;;;;7384375;19;20495;-72
2022/10/02 18:56:06;;;;;;;0.30;0.30;;;;;;;;;;7386705;19;20105;-73
2022/10/02 18:59:02;;;;;;;0.30;0.30;;;;;;;;;;7384326;19;20129;-73
2022/10/02 19:01:36;;;;;;;0.30;0.30;;;;;;;;;;7385314;19;20113;-73
2022/10/02 19:04:22;;;;;;;0.30;0.30;;;;;;;;;;7385958;19;20526;-72
2022/10/02 19:06:54;;;;;;;0.30;0.30;;;;;;;;;;7384451;19;20129;-73
2022/10/02 19:09:25;;;;;;;0.30;0.30;;;;;;;;;;7381838;19;20168;-73
2022/10/02 19:12:21;;;;;;;0.30;0.30;;;;;;;;;;7384898;19;20141;-73
2022/10/02 19:14:47;;;;;;;0.30;0.30;;;;;;;;;;7384652;19;20138;-73
2022/10/02 19:17:18;;;;;;;0.30;0.30;;;;;;;;;;7383758;19;20109;-73
2022/10/02 19:19:43;;;;;;;0.30;0.30;;;;;;;;;;7384505;19;20189;-73
2022/10/02 19:22:22;;;;;;;0.20;0.20;;;;;;;;;;7384823;19;20117;-73
2022/10/02 19:25:09;;;;;;;0.30;0.30;;;;;;;;;;7384820;19;20132;-72
2022/10/02 19:27:35;;;;;;;0.30;0.30;;;;;;;;;;7384111;19;20121;-73
2022/10/02 19:30:06;;;;;;;0.20;0.20;;;;;;;;;;7384747;19;20130;-73
2022/10/02 19:32:35;;;;;;;0.30;0.30;;;;;;;;;;7382895;19;20124;-72
2022/10/02 19:35:03;;;;;;;0.30;0.30;;;;;;;;;;7383003;19;20509;-72
2022/10/02 19:37:30;;;;;;;0.30;0.30;;;;;;;;;;7385954;19;20190;-72
2022/10/02 19:39:59;;;;;;;0.30;0.30;;;;;;;;;;7382721;19;20359;-73
2022/10/02 19:42:27;;;;;;;0.63;0.63;;;;;;;;;;7385467;19;20113;-73
2022/10/02 19:44:57;;;;;;;0.30;0.30;;;;;;;;;;7383009;19;20125;-72
2022/10/02 19:47:41;;;;;;;0.30;0.30;;;;;;;;;;7386096;19;20148;-72
2022/10/02 19:50:22;;;;;;;0.30;0.30;;;;;;;;;;7379147;19;20106;-72
2022/10/02 19:52:53;;;;;;;0.30;0.30;;;;;;;;;;7382869;19;20120;-72
2022/10/02 19:55:23;;;;;;;0.30;0.30;;;;;;;;;;7388031;19;20137;-73
2022/10/02 19:57:52;;;;;;;0.40;0.40;;;;;;;;;;7391587;19;20625;-73
2022/10/02 20:00:19;;;;;;;0.20;0.20;;;;;;;;;;7390365;19;20117;-73
2022/10/02 20:02:50;;;;;;;1.17;1.17;;;;;;;;;;7390099;19;20142;-73
2022/10/02 20:05:22;;;;;;;0.30;0.30;;;;;;;;;;7386507;19;20656;-73
2022/10/02 20:07:49;;;;;;;0.30;0.30;;;;;;;;;;7387738;19;20113;-73
2022/10/02 20:10:28;;;;;;;0.30;0.30;;;;;;;;;;7380497;19;20125;-72
2022/10/02 20:13:04;;;;;;;0.75;0.57;;;;;;;;;;7385510;19;20109;-73
2022/10/02 20:18:23;;;;;;;0.30;0.30;;;;;;;;;;7386796;19;20582;-73
2022/10/02 20:20:50;;;;;;;0.30;0.30;;;;;;;;;;7382663;19;20129;-73
2022/10/02 20:23:22;;;;;;;0.30;0.30;;;;;;;;;;7389153;19;20146;-73
2022/10/02 20:25:51;;;;;;;0.30;0.30;;;;;;;;;;7386056;19;20164;-73
2022/10/02 20:28:28;;;;;;;0.28;0.28;;;;;;;;;;7387147;19;20135;-73
2022/10/02 20:30:59;;;;;;;0.30;0.30;;;;;;;;;;7383770;19;20127;-73
2022/10/02 20:33:53;;;;;;;0.30;0.30;;;;;;;;;;7389191;19;20571;-73
2022/10/02 20:36:20;;;;;;;0.30;0.30;;;;;;;;;;7386852;19;20158;-73
2022/10/02 20:39:01;;;;;;;0.30;0.30;;;;;;;;;;7389840;19;20125;-72
2022/10/02 20:41:35;;;;;;;0.30;0.30;;;;;;;;;;7380025;19;20105;-73
2022/10/02 20:47:02;;;;;;;0.30;0.30;;;;;;;;;;7387115;19;20522;-70
2022/10/02 20:50:03;;;;;;;0.30;0.30;;;;;;;;;;7388720;19;20145;-70
2022/10/02 20:53:00;;;;;;;0.30;0.30;;;;;;;;;;7384189;19;20465;-70
2022/10/02 20:55:32;;;;;;;0.25;0.25;;;;;;;;;;7388414;19;20192;-70
2022/10/02 20:58:19;;;;;;;0.30;0.30;;;;;;;;;;7389201;19;20133;-70
2022/10/02 21:01:03;;;;;;;0.30;0.30;;;;;;;;;;7386146;19;20105;-69
2022/10/02 21:04:02;;;;;;;0.30;0.30;;;;;;;;;;7385904;19;20101;-70
2022/10/02 21:06:36;;;;;;;0.30;0.30;;;;;;;;;;7387254;19;20128;-70
2022/10/02 21:09:23;;;;;;;0.30;0.30;;;;;;;;;;7383589;19;20117;-70
2022/10/02 21:12:26;;;;;;;0.30;0.30;;;;;;;;;;7388141;19;20109;-69
2022/10/02 21:14:52;;;;;;;0.22;0.22;;;;;;;;;;7388026;19;20184;-70
2022/10/02 21:17:17;;;;;;;0.30;0.30;;;;;;;;;;7389154;19;20101;-71
2022/10/02 21:20:06;;;;;;;0.30;0.30;;;;;;;;;;7384515;19;20117;-70
2022/10/02 21:22:47;;;;;;;0.30;0.30;;;;;;;;;;7387480;19;20489;-70
2022/10/02 21:25:53;;;;;;;0.20;0.20;;;;;;;;;;7388731;19;20124;-72
2022/10/02 21:28:37;;;;;;;0.30;0.30;;;;;;;;;;7387647;19;20105;-73
2022/10/02 21:31:44;;;;;;;0.30;0.30;;;;;;;;;;7386015;19;20445;-73
2022/10/02 21:34:45;;;;;;;0.30;0.30;;;;;;;;;;7385052;19;20492;-72
2022/10/02 21:37:21;;;;;;;0.30;0.30;;;;;;;;;;7389608;19;20105;-73
2022/10/02 21:39:56;;;;;;;0.30;0.30;;;;;;;;;;7382759;19;20121;-72
2022/10/02 21:42:33;;;;;;;0.20;0.20;;;;;;;;;;7388930;19;20561;-73
2022/10/02 21:45:36;;;;;;;0.30;0.30;;;;;;;;;;7381942;19;20147;-73
2022/10/02 21:48:32;;;;;;;0.30;0.30;;;;;;;;;;7385553;19;20116;-73
2022/10/02 21:51:36;;;;;;;0.30;0.30;;;;;;;;;;7386764;19;20606;-73
2022/10/02 21:54:17;;;;;;;0.30;0.30;;;;;;;;;;7386731;19;20184;-73
2022/10/02 21:56:55;;;;;;;0.30;0.30;;;;;;;;;;7387857;19;20642;-73
2022/10/02 21:59:23;;;;;;;0.20;0.20;;;;;;;;;;7385228;19;20125;-73
2022/10/02 22:02:19;;;;;;;0.30;0.30;;;;;;;;;;7386888;19;20124;-73
2022/10/02 22:04:44;;;;;;;0.30;0.30;;;;;;;;;;7386594;19;20175;-71
2022/10/02 22:07:45;;;;;;;0.30;0.30;;;;;;;;;;7386531;19;20939;-71
2022/10/02 22:10:19;;;;;;;0.20;0.20;;;;;;;;;;7381696;19;20168;-70
2022/10/02 22:13:06;;;;;;;0.30;0.30;;;;;;;;;;7386024;19;20142;-70
2022/10/02 22:15:54;;;;;;;0.28;0.28;;;;;;;;;;7387036;19;20117;-71
2022/10/02 22:18:28;;;;;;;0.30;0.30;;;;;;;;;;7387500;19;20101;-70
2022/10/02 22:21:02;;;;;;;0.30;0.30;;;;;;;;;;7388785;19;20567;-71
2022/10/02 22:23:36;;;;;;;0.30;0.30;;;;;;;;;;7388346;19;20116;-70
2022/10/02 22:26:53;;;;;;;0.30;0.30;;;;;;;;;;7387464;19;20584;-70
2022/10/02 22:29:36;;;;;;;0.30;0.30;;;;;;;;;;7384854;19;20117;-71
2022/10/02 22:35:11;;;;;;;0.22;0.22;;;;;;;;;;7382736;19;20136;-70
2022/10/02 22:37:50;;;;;;;0.30;0.30;;;;;;;;;;7384323;19;20101;-71
2022/10/02 22:43:48;;;;;;;0.30;0.30;;;;;;;;;;7386989;19;20104;-71
2022/10/02 22:46:22;;;;;;;0.30;0.30;;;;;;;;;;7380563;19;20116;-71
2022/10/02 22:49:09;;;;;;;0.30;0.30;;;;;;;;;;7381972;19;20449;-70
2022/10/02 22:52:04;;;;;;;0.30;0.30;;;;;;;;;;7385078;19;20113;-70
2022/10/02 22:54:54;;;;;;;0.30;0.30;;;;;;;;;;7380507;19;20137;-70
2022/10/02 22:57:48;;;;;;;0.30;0.30;;;;;;;;;;7380293;19;20181;-70
2022/10/02 23:00:18;;;;;;;0.30;0.30;;;;;;;;;;7377326;19;20141;-70
2022/10/02 23:03:07;;;;;;;0.30;0.30;;;;;;;;;;7384500;19;20121;-71
2022/10/02 23:05:45;;;;;;;0.20;0.20;;;;;;;;;;7382231;19;20721;-71
2022/10/02 23:08:29;;;;;;;0.30;0.30;;;;;;;;;;7383266;19;20101;-71
2022/10/02 23:11:05;;;;;;;0.20;0.20;;;;;;;;;;7386043;19;20575;-70
2022/10/02 23:13:35;;;;;;;0.30;0.30;;;;;;;;;;7382589;19;20101;-70
2022/10/02 23:16:05;;;;;;;0.30;0.30;;;;;;;;;;7384875;19;20120;-70
2022/10/02 23:18:36;;;;;;;0.20;0.20;;;;;;;;;;7386069;19;20129;-70
2022/10/02 23:21:31;;;;;;;0.30;0.30;;;;;;;;;;7381585;19;20108;-70
2022/10/02 23:24:05;;;;;;;0.30;0.30;;;;;;;;;;7386636;19;20205;-70
2022/10/02 23:26:38;;;;;;;0.30;0.30;;;;;;;;;;7378139;19;20111;-70
2022/10/02 23:29:40;;;;;;;0.30;0.30;;;;;;;;;;7380217;19;20101;-70
2022/10/02 23:32:11;;;;;;;0.30;0.30;;;;;;;;;;7371799;19;20101;-71
2022/10/02 23:34:52;;;;;;;0.30;0.30;;;;;;;;;;7380824;19;20133;-70
2022/10/02 23:37:23;;;;;;;0.30;0.30;;;;;;;;;;7377598;19;20136;-71
2022/10/02 23:39:55;;;;;;;0.30;0.30;;;;;;;;;;7380344;19;20117;-70
2022/10/02 23:42:29;;;;;;;0.30;0.30;;;;;;;;;;7371626;19;20151;-70
2022/10/02 23:45:00;;;;;;;0.30;0.30;;;;;;;;;;7374777;19;20132;-73
2022/10/02 23:47:51;;;;;;;0.20;0.20;;;;;;;;;;7381669;19;20128;-73
2022/10/02 23:50:21;;;;;;;0.30;0.30;;;;;;;;;;7379478;19;20109;-73
2022/10/02 23:53:16;;;;;;;0.30;0.30;;;;;;;;;;7379079;19;20137;-73
2022/10/02 23:55:58;;;;;;;0.30;0.30;;;;;;;;;;7378486;19;20454;-74
2022/10/02 23:58:52;;;;;;;0.30;0.30;;;;;;;;;;7384241;19;20521;-73
